Portada
METAR-TAF:

METAR-TAF

Aeropuertos :

Aeropuerto de Terrace

Terrace, Columbia Británica, Canadá

latitud: 54-28N, longitud: 128-35W, altitud: 217 m

Observación

El informe se hizo hace 13 horas y 23 minutos, a las 05:00 UTC
Viento 8 kt del noroeste
Temperatura 22°C
Humedad 43%
Presión 1019 hPa
Visibilidad: 24.1 km
Escasas nubes a una altura de 17000 ft
Cielo nuboso a una altura de 23000 ft

METAR: CYXT 210500Z 31008KT 15SM FEW170 BKN230 22/09 A3010 RMK FU1FU1CI4 SLP194 DENSITY ALT 1600FT

Hora: 11:23 (18:23 UTC)

Pronóstico

El informe se hizo hace 17 horas y 45 minutos, a las 00:38 UTC
Pronóstico válido del 21 a las 01 UTC al 21 a las 13 UTC
Viento 5 kt del norte
Visibilidad: 10 km
Escasas nubes a una altura de 4000 ft
Cielo nuboso a una altura de 21000 ft

TAF: CYXT 210038Z 2101/2113 36005KT P6SM FEW040 BKN210 RMK NXT FCST BY 210700Z

Observaciones y pronósticos meteorológicos de más de 4000 aeropuertos (mensajes METAR y TAF).

Los puntos amarillos y rojos representan las estaciones disponibles.

Ponga el ratón en el punto deseado para ver el nombre de la estación.

Haga clic para ver las observaciones y los pronósticos meteorológicos.

Para cambiar el mapa : haga clic en los botones verdes con una cruz de color negro para hacer un zoom, en el botón verde con un guión para alejar o en las flechas verdes para mapas adyacentes.


METAR-TAF: